Terminal Aerodrome Forecast
Issued by NWS Topeka, KS

Home | Current Version | Previous Version | Graphics & Text | Print | Product List | Glossary On
Versions: 1 2 3 4 5 6 7 8 9 10 11 12 13 14 15 16 17 18 19 20 21 22 23 24 25 26
000
FTUS43 KTOP 222320
TAFTOP
TAF
KTOP 222320Z 2300/2324 VRB02KT 2SM -DZ OVC003
     FM230500 26003KT 2SM BR OVC004
     FM231800 30004KT 6SM BR SCT002 BKN010
     FM232100 04004KT P6SM SCT010=

USA.gov is the U.S. government's official web portal to all federal, state and local government web resources and services.